createdAt,value
2019-03-26T00:03:03.758Z,70.93
2019-03-26T00:08:05.446Z,47.57
2019-03-26T00:13:07.147Z,49.30
2019-03-26T00:18:08.848Z,59.23
2019-03-26T00:23:10.547Z,54.77
2019-03-26T00:28:12.247Z,40.13
2019-03-26T00:33:13.947Z,46.00
2019-03-26T00:38:15.651Z,67.33
2019-03-26T00:43:17.451Z,58.00
2019-03-26T00:48:19.250Z,54.40
2019-03-26T00:53:20.952Z,35.97
2019-03-26T00:58:22.754Z,51.23
2019-03-26T01:03:25.575Z,67.80
2019-03-26T01:08:27.788Z,38.37
2019-03-26T01:13:29.589Z,42.50
2019-03-26T01:18:31.906Z,45.67
2019-03-26T01:23:33.638Z,58.20
2019-03-26T01:28:35.411Z,51.93
2019-03-26T01:33:37.726Z,50.73
2019-03-26T01:38:39.543Z,61.20
2019-03-26T01:43:41.637Z,54.53
2019-03-26T01:48:43.950Z,56.93
2019-03-26T01:53:45.637Z,28.87
2019-03-26T01:58:47.419Z,39.13
2019-03-26T02:03:49.109Z,30.53
2019-03-26T02:08:50.815Z,39.00
2019-03-26T02:13:53.027Z,48.93
2019-03-26T02:18:54.729Z,39.20
2019-03-26T02:23:56.427Z,45.17
2019-03-26T02:28:58.642Z,33.00
2019-03-26T02:34:00.442Z,28.30
2019-03-26T02:39:02.346Z,47.33
2019-03-26T02:44:04.767Z,38.93
2019-03-26T02:49:06.569Z,51.60
2019-03-26T02:54:08.268Z,34.57
2019-03-26T02:59:10.689Z,37.60
2019-03-26T03:04:12.287Z,45.93
2019-03-26T03:09:14.735Z,23.97
2019-03-26T03:14:16.706Z,16.73
2019-03-26T03:19:19.221Z,26.70
2019-03-26T03:24:20.923Z,22.60
2019-03-26T03:29:22.622Z,35.03
2019-03-26T03:34:24.745Z,20.07
2019-03-26T03:39:26.494Z,13.77
2019-03-26T03:44:28.642Z,25.07
2019-03-26T03:49:30.551Z,43.50
2019-03-26T03:54:34.323Z,26.70
2019-03-26T03:59:36.807Z,30.33
2019-03-26T04:04:38.500Z,27.63
2019-03-26T04:09:40.605Z,48.80
2019-03-26T04:14:42.750Z,46.10
2019-03-26T04:19:44.474Z,42.93
2019-03-26T04:24:46.118Z,42.77
2019-03-26T04:29:47.821Z,36.87
2019-03-26T04:34:49.609Z,36.10
2019-03-26T04:39:51.240Z,37.80
2019-03-26T04:44:53.417Z,27.37
2019-03-26T04:49:55.115Z,43.40
2019-03-26T04:54:56.809Z,35.53
2019-03-26T04:59:58.482Z,33.07
2019-03-26T05:05:00.425Z,50.43
2019-03-26T05:10:03.822Z,37.13
2019-03-26T05:15:06.270Z,36.83
2019-03-26T05:20:08.372Z,17.70
2019-03-26T05:25:10.232Z,28.77
2019-03-26T05:30:12.484Z,26.43
2019-03-26T05:35:14.296Z,19.63
2019-03-26T05:40:16.881Z,35.07
2019-03-26T05:45:19.124Z,17.23
2019-03-26T05:50:20.915Z,13.47
2019-03-26T05:55:23.265Z,15.90
2019-03-26T06:00:25.883Z,19.80
2019-03-26T06:05:27.550Z,19.97
2019-03-26T06:10:29.184Z,22.90
2019-03-26T06:15:30.797Z,18.77
2019-03-26T06:20:32.543Z,28.20
2019-03-26T06:25:35.164Z,23.30
2019-03-26T06:30:44.042Z,38.97
2019-03-26T06:35:46.267Z,24.83
2019-03-26T06:40:47.940Z,33.57
2019-03-26T06:45:53.628Z,33.60
2019-03-26T06:50:55.765Z,21.07
2019-03-26T06:55:57.829Z,24.67
2019-03-26T07:01:04.032Z,31.87
2019-03-26T07:06:06.164Z,34.13
2019-03-26T07:11:07.853Z,27.37
2019-03-26T07:16:09.457Z,33.87
2019-03-26T07:21:11.485Z,38.87
2019-03-26T07:26:13.576Z,26.07
2019-03-26T07:31:15.787Z,30.27
2019-03-26T07:36:17.584Z,18.70
2019-03-26T07:41:19.332Z,19.20
2019-03-26T07:46:21.244Z,23.70
2019-03-26T07:56:51.206Z,13.50
2019-03-26T08:01:58.333Z,11.93
2019-03-26T08:12:08.416Z,15.50
2019-03-26T08:17:10.065Z,14.60
2019-03-26T08:22:12.129Z,18.47
2019-03-26T08:27:13.812Z,30.23
2019-03-26T08:32:15.989Z,20.20
2019-03-26T08:37:17.974Z,17.40
2019-03-26T08:42:22.450Z,25.03
2019-03-26T08:47:24.192Z,18.87
2019-03-26T08:52:25.808Z,7.70
2019-03-26T08:57:27.494Z,17.13
2019-03-26T09:02:29.805Z,16.53
2019-03-26T09:07:31.543Z,20.97
2019-03-26T09:12:33.717Z,10.77
2019-03-26T09:17:35.754Z,21.83
2019-03-26T09:22:37.458Z,8.47
2019-03-26T09:27:39.173Z,12.40
2019-03-26T09:32:41.248Z,16.10
2019-03-26T09:37:43.042Z,10.77
2019-03-26T09:42:44.851Z,12.90
2019-03-26T09:47:46.614Z,11.13
2019-03-26T09:52:48.663Z,9.30
2019-03-26T09:57:50.401Z,14.20
2019-03-26T10:02:52.563Z,13.53
2019-03-26T10:07:54.262Z,20.37
2019-03-26T10:12:55.962Z,10.67
2019-03-26T10:17:57.660Z,13.23
2019-03-26T10:22:59.762Z,19.00
2019-03-26T10:28:01.481Z,10.83
2019-03-26T10:33:04.504Z,23.47
2019-03-26T10:38:06.299Z,16.03
2019-03-26T10:43:08.095Z,11.90
2019-03-26T10:48:10.055Z,19.17
2019-03-26T10:53:12.572Z,15.03
2019-03-26T10:58:14.294Z,12.93
2019-03-26T11:03:16.573Z,15.77
2019-03-26T11:08:18.234Z,8.00
2019-03-26T11:13:19.923Z,11.10
2019-03-26T11:18:21.490Z,16.27
2019-03-26T11:23:23.123Z,7.67
2019-03-26T11:28:28.511Z,12.53
2019-03-26T11:33:30.645Z,14.17
2019-03-26T11:38:32.385Z,11.43
2019-03-26T11:43:34.193Z,15.57
2019-03-26T11:48:35.990Z,13.03
2019-03-26T11:53:38.045Z,13.80
2019-03-26T11:58:39.673Z,14.83
2019-03-26T12:03:42.024Z,21.27
2019-03-26T12:08:43.671Z,14.73
2019-03-26T12:13:45.303Z,24.57
2019-03-26T12:18:47.038Z,11.47
2019-03-26T12:23:48.671Z,17.53
2019-03-26T12:28:50.642Z,27.77
2019-03-26T12:33:52.841Z,22.97
2019-03-26T12:38:54.425Z,17.17
2019-03-26T12:43:56.152Z,12.80
2019-03-26T12:48:58.768Z,13.33
2019-03-26T12:54:00.419Z,11.27
2019-03-26T12:59:02.413Z,14.47
2019-03-26T13:04:12.694Z,13.37
2019-03-26T13:09:08.431Z,14.67
2019-03-26T13:14:10.108Z,14.60
2019-03-26T13:19:11.747Z,16.47
2019-03-26T13:24:13.561Z,21.90
2019-03-26T13:29:15.249Z,19.70
2019-03-26T13:34:19.359Z,28.90
2019-03-26T13:39:21.079Z,17.63
2019-03-26T13:44:23.065Z,11.53
2019-03-26T13:49:25.018Z,11.20
2019-03-26T13:54:26.738Z,13.40
2019-03-26T13:59:28.407Z,12.53
2019-03-26T14:04:30.497Z,9.87
2019-03-26T14:09:32.140Z,9.43
2019-03-26T14:14:33.818Z,10.53
2019-03-26T14:19:35.447Z,6.90
2019-03-26T14:24:37.176Z,14.13
2019-03-26T14:29:38.953Z,6.40
2019-03-26T14:34:41.453Z,16.63
2019-03-26T14:39:43.207Z,10.00
2019-03-26T14:44:45.008Z,9.93
2019-03-26T14:49:48.348Z,11.13
2019-03-26T14:54:50.171Z,5.73
2019-03-26T14:59:51.875Z,2.50
2019-03-26T15:04:54.268Z,4.10
2019-03-26T15:09:55.944Z,9.00
2019-03-26T15:14:57.908Z,4.17
2019-03-26T15:19:59.501Z,1.60
2019-03-26T15:25:01.156Z,4.87
2019-03-26T15:30:05.763Z,2.90
2019-03-26T15:35:07.975Z,1.10
2019-03-26T15:40:13.150Z,3.20
2019-03-26T15:45:15.557Z,1.50
2019-03-26T15:50:23.636Z,4.20
2019-03-26T15:55:25.456Z,3.37
2019-03-26T16:00:28.848Z,9.80
2019-03-26T16:05:31.472Z,6.70
2019-03-26T16:10:33.143Z,21.33
2019-03-26T16:15:44.025Z,10.90
2019-03-26T16:20:38.537Z,16.63
2019-03-26T16:25:40.215Z,12.53
2019-03-26T16:30:42.220Z,20.73
2019-03-26T16:35:45.609Z,21.53
2019-03-26T16:40:47.282Z,14.20
2019-03-26T16:45:49.059Z,14.83
2019-03-26T16:50:51.243Z,22.17
2019-03-26T16:55:52.868Z,22.03
2019-03-26T17:00:54.521Z,16.50
2019-03-26T17:05:57.086Z,23.20
2019-03-26T17:10:58.762Z,22.03
2019-03-26T17:16:00.427Z,21.63
2019-03-26T17:21:02.066Z,15.67
2019-03-26T17:26:03.661Z,23.13
2019-03-26T17:31:05.355Z,13.90
2019-03-26T17:36:07.521Z,20.03
2019-03-26T17:41:09.218Z,26.37
2019-03-26T17:46:11.298Z,14.53
2019-03-26T17:51:13.035Z,27.87
2019-03-26T17:56:14.851Z,29.43
2019-03-26T18:01:16.526Z,26.27
2019-03-26T18:06:18.686Z,33.93
2019-03-26T18:11:20.390Z,33.33
2019-03-26T18:16:22.061Z,44.13
2019-03-26T18:21:23.697Z,39.27
2019-03-26T18:26:25.412Z,53.03
2019-03-26T18:31:27.125Z,49.30
2019-03-26T18:36:29.343Z,54.93
2019-03-26T18:41:33.221Z,47.33
2019-03-26T18:46:35.414Z,55.13
2019-03-26T18:51:37.159Z,78.80
2019-03-26T18:56:38.934Z,46.57
2019-03-26T19:01:41.333Z,53.93
2019-03-26T19:06:43.408Z,43.23
2019-03-26T19:11:44.994Z,49.80
2019-03-26T19:16:46.696Z,59.07
2019-03-26T19:21:48.329Z,55.30
2019-03-26T19:26:50.017Z,44.33
2019-03-26T19:31:51.821Z,54.37
2019-03-26T19:36:55.751Z,72.07
2019-03-26T19:41:57.537Z,56.97
2019-03-26T19:46:59.324Z,53.00
2019-03-26T19:52:01.197Z,72.03
2019-03-26T19:57:02.924Z,53.60
2019-03-26T20:02:04.638Z,65.87
2019-03-26T20:07:06.770Z,48.33
2019-03-26T20:12:08.456Z,81.77
2019-03-26T20:17:10.146Z,43.03
2019-03-26T20:22:11.842Z,57.83
2019-03-26T20:27:13.637Z,63.67
2019-03-26T20:32:15.398Z,61.13
2019-03-26T20:37:17.488Z,52.20
2019-03-26T20:42:19.178Z,44.43
2019-03-26T20:47:20.872Z,54.43
2019-03-26T20:52:22.670Z,58.47
2019-03-26T20:57:24.990Z,35.10
2019-03-26T21:02:26.820Z,49.60
2019-03-26T21:07:31.570Z,43.77
2019-03-26T21:12:33.710Z,41.83
2019-03-26T21:17:36.339Z,55.73
2019-03-26T21:22:38.029Z,58.53
2019-03-26T21:27:44.745Z,35.77
2019-03-26T21:32:46.527Z,77.97
2019-03-26T21:37:48.195Z,65.97
2019-03-26T21:42:50.186Z,47.60
2019-03-26T21:47:51.900Z,45.60
2019-03-26T21:52:53.694Z,52.10
2019-03-26T21:57:55.394Z,58.20
2019-03-26T22:02:57.002Z,43.87
2019-03-26T22:07:59.330Z,58.97
2019-03-26T22:13:01.065Z,36.30
2019-03-26T22:18:02.719Z,48.20
2019-03-26T22:23:04.588Z,48.23
2019-03-26T22:28:07.357Z,62.17
2019-03-26T22:33:09.118Z,50.37
2019-03-26T22:38:10.842Z,58.20
2019-03-26T22:43:12.674Z,53.13
2019-03-26T22:48:14.381Z,49.17
2019-03-26T22:53:19.012Z,76.13
2019-03-26T22:58:23.726Z,42.80
2019-03-26T23:03:25.917Z,53.70
2019-03-26T23:08:28.002Z,41.03
2019-03-26T23:13:29.700Z,47.30
2019-03-26T23:18:31.417Z,64.20
2019-03-26T23:23:34.793Z,68.47
2019-03-26T23:28:37.270Z,49.33
2019-03-26T23:33:39.493Z,45.63
2019-03-26T23:38:41.487Z,41.60
2019-03-26T23:43:43.450Z,54.93
2019-03-26T23:48:45.238Z,46.53
2019-03-26T23:53:49.701Z,39.67
2019-03-26T23:58:51.772Z,54.10
